createdAt,value
2022-08-18T00:00:07.467Z,97012.88
2022-08-18T00:02:43.611Z,97018.50
2022-08-18T00:05:28.405Z,97018.50
2022-08-18T00:07:58.837Z,97024.00
2022-08-18T00:10:27.492Z,97010.63
2022-08-18T00:12:57.082Z,97004.41
2022-08-18T00:15:31.029Z,96998.03
2022-08-18T00:17:58.764Z,96994.53
2022-08-18T00:20:27.353Z,97001.53
2022-08-18T00:22:56.534Z,97005.56
2022-08-18T00:25:25.440Z,97009.13
2022-08-18T00:27:53.131Z,97013.81
2022-08-18T00:30:22.939Z,97011.81
2022-08-18T00:32:54.911Z,97010.13
2022-08-18T00:35:29.040Z,97010.56
2022-08-18T00:37:58.869Z,97009.03
2022-08-18T00:40:34.491Z,97011.78
2022-08-18T00:43:07.757Z,97007.47
2022-08-18T00:45:38.594Z,97003.41
2022-08-18T00:48:09.819Z,97004.78
2022-08-18T00:50:42.590Z,97003.59
2022-08-18T00:53:13.507Z,97004.34
2022-08-18T00:55:43.751Z,97004.41
2022-08-18T00:58:34.388Z,97011.94
2022-08-18T01:01:06.866Z,97018.84
2022-08-18T01:03:39.942Z,97013.91
2022-08-18T01:06:15.085Z,97021.69
2022-08-18T01:08:42.848Z,97020.59
2022-08-18T01:11:11.823Z,97019.47
2022-08-18T01:13:42.616Z,97015.53
2022-08-18T01:16:28.636Z,97017.28
2022-08-18T01:19:15.386Z,97020.97
2022-08-18T01:21:53.584Z,97020.75
2022-08-18T01:24:46.527Z,97016.94
2022-08-18T01:27:18.198Z,97016.31
2022-08-18T01:29:46.375Z,97009.25
2022-08-18T01:32:19.856Z,97014.31
2022-08-18T01:34:48.474Z,97011.09
2022-08-18T01:37:19.092Z,97006.38
2022-08-18T01:41:22.317Z,97002.69
2022-08-18T01:42:37.129Z,97008.00
2022-08-18T01:45:07.968Z,97000.41
2022-08-18T01:47:47.909Z,97001.06
2022-08-18T01:50:17.270Z,97006.28
2022-08-18T01:52:45.405Z,97006.22
2022-08-18T01:55:14.845Z,97004.03
2022-08-18T01:57:45.504Z,96999.41
2022-08-18T02:00:15.984Z,97001.59
2022-08-18T02:02:44.291Z,97032.59
2022-08-18T02:05:18.271Z,97054.97
2022-08-18T02:07:46.772Z,97047.91
2022-08-18T02:10:18.001Z,97045.56
2022-08-18T02:12:46.111Z,97046.50
2022-08-18T02:15:14.086Z,97043.00
2022-08-18T02:17:45.383Z,97055.88
2022-08-18T02:20:17.301Z,97034.56
2022-08-18T02:22:46.216Z,97024.69
2022-08-18T02:25:16.417Z,97042.19
2022-08-18T02:27:44.325Z,97045.75
2022-08-18T02:30:15.322Z,97048.56
2022-08-18T02:32:43.552Z,97054.06
2022-08-18T02:35:12.646Z,97046.19
2022-08-18T02:37:50.383Z,97043.88
2022-08-18T02:40:20.422Z,97042.28
2022-08-18T02:42:48.679Z,97048.59
2022-08-18T02:45:16.626Z,97052.97
2022-08-18T02:47:45.188Z,97045.50
2022-08-18T02:50:14.463Z,97042.34
2022-08-18T02:52:42.526Z,97050.59
2022-08-18T02:55:11.706Z,97052.97
2022-08-18T02:57:45.367Z,97043.50
2022-08-18T03:00:16.029Z,97040.75
2022-08-18T03:02:48.345Z,97043.47
2022-08-18T03:05:16.906Z,97041.53
2022-08-18T03:07:45.654Z,97037.56
2022-08-18T03:10:31.397Z,97038.41
2022-08-18T03:15:46.429Z,97039.19
2022-08-18T03:18:14.997Z,97043.09
2022-08-18T03:20:44.129Z,97051.38
2022-08-18T03:23:12.941Z,97052.56
2022-08-18T03:25:46.578Z,97051.78
2022-08-18T03:28:17.342Z,97050.59
2022-08-18T03:30:45.283Z,97045.84
2022-08-18T03:33:13.529Z,97052.94
2022-08-18T03:35:42.042Z,97050.56
2022-08-18T03:38:10.320Z,97044.63
2022-08-18T03:40:38.205Z,97046.59
2022-08-18T03:43:50.158Z,97047.81
2022-08-18T03:45:56.829Z,97045.81
2022-08-18T03:48:25.682Z,97050.16
2022-08-18T03:50:53.570Z,97048.59
2022-08-18T03:53:21.748Z,97051.72
2022-08-18T03:55:49.669Z,97052.53
2022-08-18T03:58:17.964Z,97058.03
2022-08-18T04:00:45.819Z,97058.41
2022-08-18T04:03:15.438Z,97064.75
2022-08-18T04:05:43.338Z,97068.72
2022-08-18T04:08:11.388Z,97073.84
2022-08-18T04:10:39.240Z,97060.84
2022-08-18T04:13:07.528Z,97057.66
2022-08-18T04:15:35.381Z,97064.41
2022-08-18T04:18:04.749Z,97053.75
2022-08-18T04:20:34.145Z,97046.25
2022-08-18T04:23:02.548Z,97036.75
2022-08-18T04:25:33.390Z,97042.25
2022-08-18T04:28:03.850Z,97038.28
2022-08-18T04:30:32.096Z,97036.34
2022-08-18T04:33:02.743Z,97042.22
2022-08-18T04:35:33.667Z,97053.56
2022-08-18T04:38:01.940Z,97061.69
2022-08-18T04:40:33.608Z,97060.09
2022-08-18T04:43:02.400Z,97052.56
2022-08-18T04:45:30.267Z,97039.97
2022-08-18T04:47:58.192Z,97027.78
2022-08-18T04:50:26.353Z,97021.50
2022-08-18T04:53:13.519Z,97037.63
2022-08-18T04:55:48.361Z,97033.72
2022-08-18T04:58:19.085Z,97033.41
2022-08-18T05:00:47.537Z,97039.28
2022-08-18T05:03:15.941Z,97041.63
2022-08-18T05:05:43.791Z,97038.56
2022-08-18T05:08:13.389Z,97039.44
2022-08-18T05:10:41.485Z,97042.28
2022-08-18T05:13:10.196Z,97045.84
2022-08-18T05:16:07.142Z,97045.09
2022-08-18T05:18:28.545Z,97045.47
2022-08-18T05:20:57.503Z,97039.97
2022-08-18T05:23:30.684Z,97042.72
2022-08-18T05:26:00.774Z,97045.91
2022-08-18T05:28:29.576Z,97049.44
2022-08-18T05:31:00.522Z,97047.03
2022-08-18T05:33:29.058Z,97054.53
2022-08-18T05:36:04.927Z,97060.88
2022-08-18T05:38:43.525Z,97071.56
2022-08-18T05:41:22.796Z,97077.09
2022-08-18T05:43:52.556Z,97077.09
2022-08-18T05:46:25.808Z,97090.53
2022-08-18T05:48:54.176Z,97088.50
2022-08-18T05:51:30.457Z,97078.94
2022-08-18T05:54:29.792Z,97073.50
2022-08-18T05:57:02.847Z,97071.41
2022-08-18T05:59:34.303Z,97080.47
2022-08-18T06:02:07.800Z,97088.44
2022-08-18T06:04:44.601Z,97094.47
2022-08-18T06:07:16.835Z,97083.91
2022-08-18T06:09:49.628Z,97084.31
2022-08-18T06:12:41.140Z,97097.78
2022-08-18T06:15:16.996Z,97085.31
2022-08-18T06:18:02.480Z,97091.28
2022-08-18T06:20:37.117Z,97088.53
2022-08-18T06:23:21.777Z,97097.63
2022-08-18T06:26:05.573Z,97095.25
2022-08-18T06:28:54.154Z,97101.56
2022-08-18T06:31:29.673Z,97107.75
2022-08-18T06:34:08.213Z,97100.47
2022-08-18T06:36:45.067Z,97104.38
2022-08-18T06:39:22.186Z,97099.44
2022-08-18T06:41:53.752Z,97107.84
2022-08-18T06:44:36.530Z,97112.75
2022-08-18T06:47:11.276Z,97114.09
2022-08-18T06:49:46.950Z,97114.88
2022-08-18T06:52:21.193Z,97118.97
2022-08-18T06:54:51.545Z,97110.22
2022-08-18T06:57:30.376Z,97111.38
2022-08-18T07:00:03.886Z,97114.09
2022-08-18T07:02:54.446Z,97115.28
2022-08-18T07:05:26.601Z,97115.91
2022-08-18T07:08:12.724Z,97115.94
2022-08-18T07:10:44.026Z,97126.47
2022-08-18T07:13:30.440Z,97121.25
2022-08-18T07:16:26.417Z,97106.13
2022-08-18T07:19:08.978Z,97086.69
2022-08-18T07:21:39.003Z,97085.28
2022-08-18T07:24:24.152Z,97096.66
2022-08-18T07:27:01.837Z,97097.88
2022-08-18T07:29:34.434Z,97095.28
2022-08-18T07:32:12.538Z,97097.63
2022-08-18T07:34:55.473Z,97103.09
2022-08-18T07:37:29.322Z,97102.66
2022-08-18T07:40:02.865Z,97104.16
2022-08-18T07:43:00.566Z,97109.38
2022-08-18T07:45:34.538Z,97111.22
2022-08-18T07:48:27.361Z,97121.31
2022-08-18T07:51:08.797Z,97136.38
2022-08-18T07:53:54.796Z,97145.00
2022-08-18T07:56:38.108Z,97142.97
2022-08-18T07:59:14.110Z,97135.41
2022-08-18T08:01:51.733Z,97116.13
2022-08-18T08:04:32.063Z,97107.09
2022-08-18T08:07:25.649Z,97108.63
2022-08-18T08:10:13.488Z,97113.59
2022-08-18T08:12:49.996Z,97118.25
2022-08-18T08:15:28.388Z,97116.09
2022-08-18T08:18:09.220Z,97122.66
2022-08-18T08:20:44.894Z,97125.03
2022-08-18T08:23:27.472Z,97132.44
2022-08-18T08:26:25.429Z,97136.38
2022-08-18T08:29:04.271Z,97149.00
2022-08-18T08:31:44.560Z,97132.88
2022-08-18T08:34:18.006Z,97132.72
2022-08-18T08:36:48.347Z,97141.84
2022-08-18T08:39:22.535Z,97150.06
2022-08-18T08:41:57.856Z,97156.34
2022-08-18T08:44:58.918Z,97154.31
2022-08-18T08:47:33.493Z,97153.41
2022-08-18T08:50:08.279Z,97151.09
2022-08-18T08:52:41.534Z,97156.53
2022-08-18T08:55:16.431Z,97145.88
2022-08-18T08:57:51.829Z,97135.56
2022-08-18T09:00:20.172Z,97116.53
2022-08-18T09:03:03.712Z,97096.44
2022-08-18T09:05:41.460Z,97081.25
2022-08-18T09:08:26.358Z,97074.00
2022-08-18T09:11:11.769Z,97080.97
2022-08-18T09:14:17.974Z,97069.69
2022-08-18T09:16:59.461Z,97054.88
2022-08-18T09:19:47.030Z,97066.69
2022-08-18T09:22:30.246Z,97056.94
2022-08-18T09:24:58.761Z,97048.75
2022-08-18T09:28:09.330Z,97058.66
2022-08-18T09:30:47.748Z,97052.09
2022-08-18T09:33:35.102Z,97054.19
2022-08-18T09:36:31.840Z,97054.59
2022-08-18T09:39:27.706Z,97050.66
2022-08-18T09:41:59.660Z,97044.78
2022-08-18T09:48:32.596Z,97055.75
2022-08-18T09:51:34.934Z,97057.97
2022-08-18T09:54:14.638Z,97063.38
2022-08-18T09:57:24.412Z,97061.69
2022-08-18T10:00:28.833Z,97065.03
2022-08-18T10:03:15.614Z,97065.72
2022-08-18T10:06:12.403Z,97061.50
2022-08-18T10:12:27.318Z,97051.00
2022-08-18T10:15:33.265Z,97064.34
2022-08-18T10:18:25.991Z,97059.41
2022-08-18T10:21:05.237Z,97061.94
2022-08-18T10:24:14.536Z,97062.38
2022-08-18T10:27:10.352Z,97056.75
2022-08-18T10:29:53.026Z,97055.44
2022-08-18T10:32:52.282Z,97058.28
2022-08-18T10:36:07.109Z,97066.56
2022-08-18T10:38:45.942Z,97066.41
2022-08-18T10:41:32.232Z,97071.97
2022-08-18T10:44:10.584Z,97076.47
2022-08-18T10:46:54.290Z,97076.84
2022-08-18T10:49:26.724Z,97067.78
2022-08-18T10:52:16.397Z,97075.00
2022-08-18T10:55:06.930Z,97071.22
2022-08-18T10:58:10.814Z,97076.94
2022-08-18T11:00:52.825Z,97070.47
2022-08-18T11:03:52.293Z,97070.22
2022-08-18T11:06:26.494Z,97071.06
2022-08-18T11:08:57.867Z,97046.53
2022-08-18T11:11:34.200Z,97043.63
2022-08-18T11:14:24.400Z,97040.91
2022-08-18T11:17:04.132Z,97030.59
2022-08-18T11:22:31.472Z,97042.88
2022-08-18T11:25:01.237Z,97044.31
2022-08-18T11:27:36.196Z,97037.63
2022-08-18T11:30:07.030Z,97043.06
2022-08-18T11:32:42.520Z,97039.81
2022-08-18T11:35:25.167Z,97034.38
2022-08-18T11:37:59.851Z,97029.19
2022-08-18T11:41:10.847Z,97026.88
2022-08-18T11:43:29.722Z,97007.47
2022-08-18T11:46:16.439Z,96994.34
2022-08-18T11:48:51.803Z,97002.34
2022-08-18T11:51:25.212Z,96999.50
2022-08-18T11:53:59.566Z,96996.75
2022-08-18T11:56:31.491Z,96981.41
2022-08-18T11:59:02.765Z,96978.56
2022-08-18T12:01:48.695Z,96972.34
2022-08-18T12:04:25.792Z,96973.91
2022-08-18T12:07:04.422Z,96958.81
2022-08-18T12:12:30.715Z,96955.28
2022-08-18T12:15:09.130Z,96949.25
2022-08-18T12:17:52.282Z,96953.41
2022-08-18T12:20:22.694Z,96968.66
2022-08-18T12:22:56.441Z,96964.22
2022-08-18T12:25:25.929Z,96967.69
2022-08-18T12:27:54.129Z,96967.56
2022-08-18T12:30:22.078Z,96959.44
2022-08-18T12:35:41.843Z,96967.22
2022-08-18T12:38:13.958Z,96960.84
2022-08-18T12:40:43.976Z,96956.69
2022-08-18T12:43:12.505Z,96970.03
2022-08-18T12:45:41.911Z,96953.53
2022-08-18T12:48:10.533Z,96957.31
2022-08-18T12:50:54.485Z,96957.19
2022-08-18T12:53:29.964Z,96940.41
2022-08-18T12:56:22.704Z,96939.94
2022-08-18T12:58:53.595Z,96942.25
2022-08-18T13:01:23.318Z,96945.31
2022-08-18T13:04:11.187Z,96943.78
2022-08-18T13:06:54.178Z,96946.00
2022-08-18T13:09:35.028Z,96937.47
2022-08-18T13:12:19.191Z,96937.09
2022-08-18T13:14:48.701Z,96936.84
2022-08-18T13:17:29.475Z,96936.38
2022-08-18T13:20:02.862Z,96921.69
2022-08-18T13:22:32.661Z,96912.66
2022-08-18T13:25:04.010Z,96918.41
2022-08-18T13:27:35.705Z,96912.25
2022-08-18T13:30:30.387Z,96900.13
2022-08-18T13:32:58.889Z,96886.47
2022-08-18T13:35:38.419Z,96887.22
2022-08-18T13:38:17.457Z,96885.38
2022-08-18T13:40:49.475Z,96893.47
2022-08-18T13:43:20.761Z,96875.41
2022-08-18T13:45:53.409Z,96879.78
2022-08-18T13:48:24.541Z,96880.19
2022-08-18T13:50:56.037Z,96881.75
2022-08-18T13:53:26.359Z,96878.44
2022-08-18T13:55:59.229Z,96885.31
2022-08-18T13:58:28.735Z,96887.81
2022-08-18T14:01:22.832Z,96877.34
2022-08-18T14:03:48.516Z,96878.16
2022-08-18T14:06:22.678Z,96870.59
2022-08-18T14:08:52.659Z,96870.75
2022-08-18T14:11:27.357Z,96863.22
2022-08-18T14:13:56.631Z,96872.47
2022-08-18T14:16:26.728Z,96862.94
2022-08-18T14:19:12.807Z,96859.72
2022-08-18T14:22:02.569Z,96866.13
2022-08-18T14:24:48.977Z,96871.09
2022-08-18T14:27:19.729Z,96871.97
2022-08-18T14:29:50.381Z,96881.88
2022-08-18T14:32:29.483Z,96880.72
2022-08-18T14:35:00.347Z,96884.31
2022-08-18T14:37:29.608Z,96880.78
2022-08-18T14:39:58.575Z,96872.47
2022-08-18T14:42:33.104Z,96870.78
2022-08-18T14:45:17.865Z,96868.75
2022-08-18T14:47:56.602Z,96862.63
2022-08-18T14:50:26.391Z,96849.78
2022-08-18T14:52:54.421Z,96847.22
2022-08-18T14:55:23.744Z,96846.59
2022-08-18T14:57:53.826Z,96850.22
2022-08-18T15:00:23.006Z,96849.50
2022-08-18T15:02:52.204Z,96849.78
2022-08-18T15:05:24.337Z,96837.03
2022-08-18T15:07:53.967Z,96837.53
2022-08-18T15:10:23.677Z,96834.78
2022-08-18T15:12:59.756Z,96830.88
2022-08-18T15:15:50.773Z,96836.00
2022-08-18T15:18:22.353Z,96832.31
2022-08-18T15:21:10.429Z,96841.28
2022-08-18T15:24:04.724Z,96842.63
2022-08-18T15:26:43.912Z,96840.00
2022-08-18T15:29:14.998Z,96829.03
2022-08-18T15:31:50.834Z,96817.56
2022-08-18T15:34:20.781Z,96815.59
2022-08-18T15:36:49.470Z,96802.88
2022-08-18T15:39:17.629Z,96803.56
2022-08-18T15:44:24.660Z,96805.75
2022-08-18T15:46:53.612Z,96800.34
2022-08-18T15:49:23.956Z,96801.50
2022-08-18T15:51:52.624Z,96808.34
2022-08-18T15:54:20.908Z,96797.06
2022-08-18T15:56:58.252Z,96795.84
2022-08-18T15:59:34.158Z,96799.81
2022-08-18T16:02:11.628Z,96786.69
2022-08-18T16:04:41.287Z,96776.34
2022-08-18T16:07:11.467Z,96787.28
2022-08-18T16:09:39.390Z,96784.75
2022-08-18T16:12:10.439Z,96774.97
2022-08-18T16:14:40.957Z,96779.38
2022-08-18T16:17:17.974Z,96775.38
2022-08-18T16:19:52.283Z,96767.94
2022-08-18T16:22:21.689Z,96773.84
2022-08-18T16:24:55.005Z,96773.41
2022-08-18T16:27:23.177Z,96780.13
2022-08-18T16:29:52.387Z,96782.53
2022-08-18T16:32:20.368Z,96775.81
2022-08-18T16:34:48.245Z,96782.81
2022-08-18T16:39:49.425Z,96785.63
2022-08-18T16:42:18.597Z,96790.03
2022-08-18T16:44:46.764Z,96785.75
2022-08-18T16:47:18.643Z,96781.28
2022-08-18T16:49:48.635Z,96774.41
2022-08-18T16:52:18.080Z,96775.28
2022-08-18T16:54:46.703Z,96779.53
2022-08-18T16:57:53.405Z,96782.25
2022-08-18T17:00:42.289Z,96778.50
2022-08-18T17:03:30.420Z,96789.69
2022-08-18T17:06:03.090Z,96777.22
2022-08-18T17:08:34.250Z,96778.13
2022-08-18T17:11:03.031Z,96775.06
2022-08-18T17:13:31.414Z,96777.94
2022-08-18T17:15:59.599Z,96789.25
2022-08-18T17:18:29.983Z,96784.88
2022-08-18T17:20:57.898Z,96793.72
2022-08-18T17:23:27.542Z,96786.38
2022-08-18T17:25:56.911Z,96788.88
2022-08-18T17:28:46.758Z,96799.09
2022-08-18T17:31:20.692Z,96799.84
2022-08-18T17:33:50.548Z,96802.09
2022-08-18T17:36:26.608Z,96798.47
2022-08-18T17:39:00.364Z,96803.44
2022-08-18T17:41:29.296Z,96797.94
2022-08-18T17:44:00.940Z,96792.69
2022-08-18T17:46:38.223Z,96805.34
2022-08-18T17:49:13.876Z,96808.50
2022-08-18T17:51:45.833Z,96813.13
2022-08-18T17:54:27.908Z,96813.56
2022-08-18T17:57:01.530Z,96822.69
2022-08-18T17:59:46.016Z,96816.50
2022-08-18T18:02:28.557Z,96814.75
2022-08-18T18:05:01.657Z,96820.03
2022-08-18T18:07:33.194Z,96809.03
2022-08-18T18:10:05.135Z,96806.09
2022-08-18T18:12:36.247Z,96805.63
2022-08-18T18:15:07.784Z,96808.28
2022-08-18T18:17:38.839Z,96810.03
2022-08-18T18:20:25.148Z,96813.59
2022-08-18T18:22:53.341Z,96806.47
2022-08-18T18:25:34.422Z,96812.13
2022-08-18T18:28:03.783Z,96816.50
2022-08-18T18:30:32.802Z,96800.88
2022-08-18T18:33:04.756Z,96800.63
2022-08-18T18:35:54.643Z,96801.91
2022-08-18T18:38:28.946Z,96790.81
2022-08-18T18:41:00.596Z,96814.41
2022-08-18T18:43:36.793Z,96813.69
2022-08-18T18:46:29.131Z,96825.28
2022-08-18T18:49:07.550Z,96841.84
2022-08-18T18:51:42.632Z,96846.78
2022-08-18T18:54:22.357Z,96848.78
2022-08-18T18:56:54.347Z,96839.72
2022-08-18T18:59:38.602Z,96836.50
2022-08-18T19:02:33.736Z,96840.88
2022-08-18T19:05:13.519Z,96857.88
2022-08-18T19:07:54.360Z,96863.50
2022-08-18T19:10:27.377Z,96863.09
2022-08-18T19:12:59.385Z,96857.59
2022-08-18T19:15:28.646Z,96859.56
2022-08-18T19:18:01.617Z,96857.66
2022-08-18T19:20:33.456Z,96863.94
2022-08-18T19:23:07.534Z,96863.56
2022-08-18T19:25:39.254Z,96868.75
2022-08-18T19:28:13.788Z,96865.19
2022-08-18T19:30:47.334Z,96862.97
2022-08-18T19:33:25.789Z,96857.38
2022-08-18T19:35:59.363Z,96863.72
2022-08-18T19:38:34.758Z,96859.38
2022-08-18T19:41:19.934Z,96861.03
2022-08-18T19:43:54.631Z,96865.00
2022-08-18T19:46:37.101Z,96856.31
2022-08-18T19:49:11.294Z,96863.38
2022-08-18T19:51:42.482Z,96855.84
2022-08-18T19:54:33.727Z,96857.84
2022-08-18T19:57:24.203Z,96868.19
2022-08-18T20:00:14.868Z,96861.41
2022-08-18T20:03:09.916Z,96874.88
2022-08-18T20:05:47.415Z,96868.59
2022-08-18T20:08:50.489Z,96868.91
2022-08-18T20:11:42.020Z,96866.94
2022-08-18T20:14:13.161Z,96879.56
2022-08-18T20:16:45.099Z,96885.53
2022-08-18T20:19:42.136Z,96905.28
2022-08-18T20:22:16.071Z,96919.06
2022-08-18T20:24:51.434Z,96931.28
2022-08-18T20:27:37.161Z,96959.00
2022-08-18T20:30:33.957Z,96970.81
2022-08-18T20:33:19.049Z,96978.72
2022-08-18T20:36:11.480Z,96985.00
2022-08-18T20:38:42.811Z,96989.41
2022-08-18T20:41:38.072Z,97013.50
2022-08-18T20:44:36.450Z,97001.63
2022-08-18T20:47:19.125Z,97007.16
2022-08-18T20:50:02.971Z,97009.94
2022-08-18T20:52:41.279Z,96994.94
2022-08-18T20:55:18.186Z,97003.63
2022-08-18T20:57:47.183Z,97002.81
2022-08-18T21:00:23.921Z,97003.59
2022-08-18T21:02:58.398Z,97003.59
2022-08-18T21:05:30.135Z,96997.66
2022-08-18T21:08:03.087Z,96989.66
2022-08-18T21:10:33.514Z,97017.09
2022-08-18T21:13:04.801Z,97007.88
2022-08-18T21:15:38.442Z,97021.44
2022-08-18T21:18:08.696Z,97019.72
2022-08-18T21:20:37.006Z,97016.91
2022-08-18T21:23:09.998Z,97018.38
2022-08-18T21:25:50.456Z,97021.94
2022-08-18T21:28:21.944Z,97016.56
2022-08-18T21:31:41.746Z,97014.22
2022-08-18T21:33:51.429Z,97010.50
2022-08-18T21:36:23.326Z,97014.34
2022-08-18T21:39:05.232Z,97014.25
2022-08-18T21:41:40.581Z,97008.66
2022-08-18T21:44:14.977Z,97008.59
2022-08-18T21:46:46.632Z,97002.63
2022-08-18T21:49:24.936Z,97011.97
2022-08-18T21:51:53.051Z,97007.66
2022-08-18T21:54:24.109Z,97006.91
2022-08-18T21:57:20.452Z,97004.53
2022-08-18T22:00:17.318Z,97001.66
2022-08-18T22:02:52.057Z,97008.13
2022-08-18T22:05:29.750Z,97008.22
2022-08-18T22:08:20.548Z,97010.44
2022-08-18T22:12:00.038Z,97004.91
2022-08-18T22:14:35.938Z,97016.31
2022-08-18T22:17:31.291Z,97005.25
2022-08-18T22:20:32.407Z,97003.81
2022-08-18T22:23:24.037Z,96998.59
2022-08-18T22:25:52.493Z,96999.03
2022-08-18T22:28:27.528Z,96992.31
2022-08-18T22:30:55.947Z,96994.78
2022-08-18T22:33:23.879Z,96990.13
2022-08-18T22:35:55.308Z,96986.56
2022-08-18T22:38:28.182Z,96978.75
2022-08-18T22:40:56.869Z,96986.19
2022-08-18T22:43:24.803Z,96977.94
2022-08-18T22:45:52.727Z,96985.81
2022-08-18T22:48:20.997Z,96984.72
2022-08-18T22:50:48.890Z,96979.41
2022-08-18T22:53:19.276Z,96981.72
2022-08-18T22:55:49.353Z,96977.03
2022-08-18T22:58:28.253Z,96979.34
2022-08-18T23:01:05.326Z,96977.28
2022-08-18T23:03:41.641Z,96980.81
2022-08-18T23:06:11.709Z,96984.53
2022-08-18T23:08:54.914Z,96978.00
2022-08-18T23:11:26.049Z,96971.94
2022-08-18T23:13:54.415Z,96969.88
2022-08-18T23:16:31.387Z,96957.69
2022-08-18T23:19:02.074Z,96963.69
2022-08-18T23:21:33.729Z,96962.84
2022-08-18T23:24:04.792Z,96964.50
2022-08-18T23:26:35.068Z,96956.44
2022-08-18T23:29:03.740Z,96947.75
2022-08-18T23:31:31.796Z,96951.78
2022-08-18T23:34:01.017Z,96955.19
2022-08-18T23:36:30.148Z,96949.13
2022-08-18T23:38:59.326Z,96948.31
2022-08-18T23:41:27.742Z,96944.06
2022-08-18T23:43:58.055Z,96938.25
2022-08-18T23:46:31.997Z,96935.75
2022-08-18T23:49:02.921Z,96925.13
2022-08-18T23:51:34.293Z,96914.19
2022-08-18T23:54:06.989Z,96925.63
2022-08-18T23:56:36.187Z,96934.31
2022-08-18T23:59:07.893Z,96929.13
